createdAt,value
2022-09-28T00:00:56.173Z,53.6
2022-09-28T00:02:12.423Z,53.1
2022-09-28T00:03:27.684Z,56.7
2022-09-28T00:04:42.934Z,55.4
2022-09-28T00:05:58.194Z,54.7
2022-09-28T00:07:13.434Z,58.4
2022-09-28T00:08:29.688Z,56.2
2022-09-28T00:09:45.906Z,55.2
2022-09-28T00:11:02.172Z,57.2
2022-09-28T00:12:18.397Z,57
2022-09-28T00:13:34.647Z,60.1
2022-09-28T00:14:50.883Z,55.2
2022-09-28T00:16:07.119Z,58
2022-09-28T00:17:23.375Z,58.6
2022-09-28T00:18:39.613Z,57.3
2022-09-28T00:19:55.824Z,56.3
2022-09-28T00:21:12.084Z,58.1
2022-09-28T00:22:28.304Z,58.6
2022-09-28T00:23:43.586Z,64.9
2022-09-28T00:24:59.811Z,56.8
2022-09-28T00:26:16.069Z,54.6
2022-09-28T00:27:32.302Z,54.6
2022-09-28T00:28:48.538Z,54.4
2022-09-28T00:30:04.771Z,58.4
2022-09-28T00:31:21.010Z,57.3
2022-09-28T00:32:36.264Z,57.2
2022-09-28T00:33:51.528Z,56.8
2022-09-28T00:35:07.777Z,61
2022-09-28T00:36:24.021Z,55.5
2022-09-28T00:37:40.252Z,58.6
2022-09-28T00:38:56.481Z,55.1
2022-09-28T00:40:12.729Z,55.2
2022-09-28T00:41:28.975Z,53.8
2022-09-28T00:42:45.207Z,54.1
2022-09-28T00:44:01.458Z,55.5
2022-09-28T00:45:17.706Z,58.4
2022-09-28T00:46:33.925Z,59.7
2022-09-28T00:47:50.165Z,54.6
2022-09-28T00:49:06.413Z,54.7
2022-09-28T00:50:21.663Z,55.5
2022-09-28T00:51:37.905Z,56.8
2022-09-28T00:52:54.160Z,55.2
2022-09-28T00:54:10.394Z,55.5
2022-09-28T00:55:26.630Z,57.5
2022-09-28T00:56:42.864Z,56.2
2022-09-28T00:57:59.109Z,53.6
2022-09-28T00:59:14.351Z,53.4
2022-09-28T01:00:29.621Z,55.1
2022-09-28T01:01:44.894Z,59.7
2022-09-28T01:03:00.151Z,56
2022-09-28T01:04:15.408Z,54.1
2022-09-28T01:05:30.666Z,56.2
2022-09-28T01:06:46.900Z,57.3
2022-09-28T01:08:03.122Z,57.6
2022-09-28T01:09:19.389Z,59.6
2022-09-28T01:10:35.628Z,56.7
2022-09-28T01:11:51.853Z,57.8
2022-09-28T01:13:08.103Z,54.9
2022-09-28T01:14:24.345Z,57.8
2022-09-28T01:15:40.581Z,52
2022-09-28T01:16:56.830Z,54.4
2022-09-28T01:18:13.062Z,55.2
2022-09-28T01:19:29.275Z,53.4
2022-09-28T01:20:45.550Z,55.5
2022-09-28T01:22:00.799Z,56
2022-09-28T01:23:17.041Z,56.7
2022-09-28T01:24:33.000Z,57
2022-09-28T01:25:49.518Z,57.6
2022-09-28T01:27:05.758Z,51.7
2022-09-28T01:28:21.989Z,58.8
2022-09-28T01:29:38.228Z,54.9
2022-09-28T01:30:53.474Z,56.2
2022-09-28T01:32:08.744Z,57
2022-09-28T01:33:24.983Z,61
2022-09-28T01:34:41.240Z,57.3
2022-09-28T01:35:56.488Z,56.3
2022-09-28T01:37:11.758Z,59.2
2022-09-28T01:38:27.980Z,53.4
2022-09-28T01:39:44.218Z,54.6
2022-09-28T01:41:00.470Z,54.6
2022-09-28T01:42:16.715Z,56.8
2022-09-28T01:43:32.950Z,52.5
2022-09-28T01:44:49.193Z,66.8
2022-09-28T01:46:05.435Z,57.6
2022-09-28T01:47:21.670Z,54.6
2022-09-28T01:48:37.906Z,57.2
2022-09-28T01:49:54.150Z,55.5
2022-09-28T01:51:10.361Z,55.7
2022-09-28T01:52:26.636Z,58.4
2022-09-28T01:53:41.880Z,58
2022-09-28T01:54:58.119Z,56.8
2022-09-28T01:56:14.357Z,58.8
2022-09-28T01:57:30.603Z,58.4
2022-09-28T01:58:46.835Z,57.6
2022-09-28T02:00:03.082Z,57.2
2022-09-28T02:01:19.308Z,55.9
2022-09-28T02:02:34.592Z,57.6
2022-09-28T02:03:49.844Z,58.9
2022-09-28T02:05:05.118Z,56.5
2022-09-28T02:06:20.359Z,58
2022-09-28T02:07:36.599Z,60.5
2022-09-28T02:08:52.854Z,59.6
2022-09-28T02:10:09.096Z,58.1
2022-09-28T02:11:25.322Z,60.4
2022-09-28T02:13:57.802Z,58.9
2022-09-28T02:15:14.043Z,56.3
2022-09-28T02:16:30.276Z,56.5
2022-09-28T02:17:46.527Z,57
2022-09-28T02:19:02.776Z,56.3
2022-09-28T02:20:19.006Z,57.5
2022-09-28T02:21:35.224Z,57.6
2022-09-28T02:22:50.500Z,59.7
2022-09-28T02:24:06.723Z,56.2
2022-09-28T02:25:22.979Z,59.2
2022-09-28T02:26:39.225Z,55.4
2022-09-28T02:27:55.461Z,58.8
2022-09-28T02:29:11.702Z,55.5
2022-09-28T02:30:27.936Z,59.2
2022-09-28T02:31:44.181Z,59.7
2022-09-28T02:32:59.452Z,57.6
2022-09-28T02:34:14.695Z,59.1
2022-09-28T02:35:30.940Z,59.2
2022-09-28T02:36:47.185Z,57.8
2022-09-28T02:38:03.425Z,58.4
2022-09-28T02:39:19.651Z,58
2022-09-28T02:40:35.899Z,58.9
2022-09-28T02:41:52.126Z,59.4
2022-09-28T02:43:08.370Z,60.2
2022-09-28T02:44:24.612Z,58
2022-09-28T02:45:40.859Z,57.5
2022-09-28T02:46:57.098Z,59.1
2022-09-28T02:48:13.337Z,59.9
2022-09-28T02:49:29.576Z,60.7
2022-09-28T02:50:45.808Z,59.7
2022-09-28T02:52:01.047Z,62.5
2022-09-28T02:53:17.000Z,61
2022-09-28T02:54:33.538Z,58.3
2022-09-28T02:55:49.790Z,58
2022-09-28T02:57:06.042Z,58
2022-09-28T02:58:22.269Z,60.5
2022-09-28T02:59:37.530Z,61.5
2022-09-28T03:00:52.789Z,58.9
2022-09-28T03:02:09.034Z,60.4
2022-09-28T03:03:25.265Z,61.5
2022-09-28T03:04:41.507Z,60.9
2022-09-28T03:05:57.751Z,67.6
2022-09-28T03:07:13.966Z,61.2
2022-09-28T03:08:30.227Z,61.2
2022-09-28T03:09:46.459Z,61.7
2022-09-28T03:11:02.703Z,63
2022-09-28T03:12:18.943Z,63.3
2022-09-28T03:13:35.183Z,60.5
2022-09-28T03:14:51.424Z,62.3
2022-09-28T03:16:07.660Z,60.2
2022-09-28T03:17:22.914Z,61
2022-09-28T03:18:39.171Z,58.9
2022-09-28T03:19:55.397Z,60.7
2022-09-28T03:21:11.635Z,61.2
2022-09-28T03:30:05.309Z,62.5
2022-09-28T03:42:47.697Z,61.3
2022-09-28T03:45:20.191Z,61.5
2022-09-28T03:52:57.625Z,63.1
2022-09-28T03:55:30.113Z,61.7
2022-09-28T03:58:02.584Z,61.5
2022-09-28T04:04:23.853Z,62.6
2022-09-28T04:05:40.148Z,63.4
2022-09-28T04:09:29.059Z,62.5
2022-09-28T04:10:45.345Z,62.6
2022-09-28T04:13:17.950Z,62
2022-09-28T04:17:06.852Z,62
2022-09-28T04:20:55.880Z,63
2022-09-28T04:24:45.128Z,61.5
2022-09-28T04:27:17.951Z,63
2022-09-28T04:28:34.372Z,62.1
2022-09-28T04:29:50.785Z,62.3
2022-09-28T04:32:23.612Z,61.3
2022-09-28T04:34:56.436Z,62.1
2022-09-28T04:38:46.105Z,61.7
2022-09-28T04:42:35.965Z,63.3
2022-09-28T04:43:52.589Z,63.1
2022-09-28T04:45:09.210Z,62.8
2022-09-28T04:46:25.816Z,63.4
2022-09-28T04:48:59.076Z,64.2
2022-09-28T04:50:15.697Z,64.4
2022-09-28T04:51:32.307Z,63
2022-09-28T04:52:48.930Z,62.8
2022-09-28T04:54:04.821Z,64.2
2022-09-28T04:56:38.059Z,63.6
2022-09-28T04:57:54.690Z,64.7
2022-09-28T05:03:01.168Z,62.8
2022-09-28T05:04:17.772Z,63
2022-09-28T05:05:34.393Z,63.8
2022-09-28T05:06:51.028Z,62.3
2022-09-28T05:10:40.890Z,62.8
2022-09-28T05:11:57.501Z,63
2022-09-28T05:14:30.735Z,61.7
2022-09-28T05:15:47.375Z,62.5
2022-09-28T05:19:37.225Z,61.2
2022-09-28T05:20:53.838Z,61.3
2022-09-28T05:24:43.715Z,61.2
2022-09-28T05:26:00.338Z,60.7
2022-09-28T05:27:16.948Z,61.7
2022-09-28T05:28:32.882Z,62.3
2022-09-28T05:29:49.491Z,60.7
2022-09-28T05:33:39.354Z,61.7
2022-09-28T05:34:55.975Z,61.2
2022-09-28T05:36:12.603Z,60.7
2022-09-28T05:37:29.231Z,60.7
2022-09-28T05:38:45.853Z,61.7
2022-09-28T05:41:19.081Z,60.2
2022-09-28T05:42:34.972Z,61.8
2022-09-28T05:46:24.830Z,61.8
2022-09-28T05:47:41.461Z,60.7
2022-09-28T05:48:58.068Z,60.9
2022-09-28T05:50:14.708Z,61
2022-09-28T05:55:21.191Z,62
2022-09-28T05:56:37.793Z,61.2
2022-09-28T06:00:27.668Z,60.4
2022-09-28T06:01:44.284Z,60.7
2022-09-28T06:04:17.534Z,60.7
2022-09-28T06:05:34.150Z,59.2
2022-09-28T06:09:23.997Z,59.1
2022-09-28T06:10:40.617Z,59.9
2022-09-28T06:11:57.239Z,58.6
2022-09-28T06:13:13.857Z,58.9
2022-09-28T06:14:30.487Z,58.9
2022-09-28T06:17:03.737Z,59.1
2022-09-28T06:18:20.340Z,58.1
2022-09-28T06:20:53.597Z,60.1
2022-09-28T06:22:10.211Z,61.8
2022-09-28T06:23:26.836Z,61
2022-09-28T06:26:00.068Z,60.4
2022-09-28T06:27:15.954Z,61.2
2022-09-28T06:28:32.584Z,59.4
2022-09-28T06:29:49.206Z,58.8
2022-09-28T06:31:05.825Z,59.6
2022-09-28T06:32:22.447Z,60.4
2022-09-28T06:34:55.687Z,59.4
2022-09-28T06:36:12.307Z,59.4
2022-09-28T06:38:45.551Z,60.7
2022-09-28T06:40:02.158Z,59.7
2022-09-28T06:41:18.791Z,61.7
2022-09-28T06:42:35.400Z,62.5
2022-09-28T06:43:52.027Z,62.1
2022-09-28T06:45:07.911Z,60.2
2022-09-28T06:46:24.545Z,61.2
2022-09-28T06:47:41.148Z,60.2
2022-09-28T06:48:57.782Z,61
2022-09-28T06:50:14.403Z,62.8
2022-09-28T06:51:31.013Z,60.9
2022-09-28T06:52:47.631Z,61
2022-09-28T06:54:04.259Z,61
2022-09-28T06:55:20.887Z,59.9
2022-09-28T06:56:37.493Z,61.2
2022-09-28T06:57:54.119Z,64.7
2022-09-28T06:59:10.738Z,61.2
2022-09-28T07:01:43.977Z,61.2
2022-09-28T07:03:00.607Z,60.7
2022-09-28T07:05:33.837Z,58.9
2022-09-28T07:06:50.461Z,59.6
2022-09-28T07:08:07.092Z,59.9
2022-09-28T07:10:40.331Z,60.9
2022-09-28T07:11:56.952Z,58.8
2022-09-28T07:14:30.182Z,65.9
2022-09-28T07:17:03.430Z,59.4
2022-09-28T07:19:36.661Z,58.3
2022-09-28T07:20:53.282Z,58.9
2022-09-28T07:22:09.899Z,60.1
2022-09-28T07:23:26.524Z,60.2
2022-09-28T07:24:43.158Z,59.1
2022-09-28T07:25:59.771Z,58.9
2022-09-28T07:28:33.005Z,59.2
2022-09-28T07:29:49.636Z,59.7
2022-09-28T07:33:14.285Z,58.6
2022-09-28T07:34:30.923Z,58.4
2022-09-28T07:35:47.998Z,57.8
2022-09-28T07:37:18.503Z,58.8
2022-09-28T07:38:49.022Z,58.1
2022-09-28T07:40:19.540Z,59.9
2022-09-28T07:41:50.050Z,60.1
2022-09-28T07:43:20.568Z,60.7
2022-09-28T07:44:51.079Z,58.6
2022-09-28T07:46:21.585Z,61
2022-09-28T07:47:52.178Z,58.9
2022-09-28T07:49:30.805Z,59.1
2022-09-28T07:50:46.734Z,58.1
2022-09-28T07:52:03.028Z,62
2022-09-28T07:53:18.394Z,56.7
2022-09-28T07:54:33.704Z,56.8
2022-09-28T07:55:48.955Z,57
2022-09-28T07:57:05.190Z,58.1
2022-09-28T07:58:21.419Z,57.5
2022-09-28T07:59:37.668Z,56.5
2022-09-28T08:00:53.919Z,56.2
2022-09-28T08:02:10.151Z,56
2022-09-28T08:03:26.394Z,56.8
2022-09-28T08:04:42.626Z,55.5
2022-09-28T08:05:58.856Z,54.7
2022-09-28T08:07:15.097Z,54.1
2022-09-28T08:08:31.337Z,53.4
2022-09-28T08:09:47.588Z,53.8
2022-09-28T08:12:20.074Z,63.3
2022-09-28T08:14:52.534Z,60.2
2022-09-28T08:16:08.000Z,58.9
2022-09-28T08:17:24.040Z,56.5
2022-09-28T08:19:15.957Z,58
2022-09-28T08:19:56.531Z,57.3
2022-09-28T08:21:12.766Z,59.6
2022-09-28T08:22:28.999Z,59.4
2022-09-28T08:23:44.261Z,59.9
2022-09-28T08:24:59.512Z,58.8
2022-09-28T08:26:15.764Z,59.2
2022-09-28T08:27:31.994Z,58.3
2022-09-28T08:28:48.243Z,57.5
2022-09-28T08:30:04.483Z,56.8
2022-09-28T08:31:20.723Z,56.5
2022-09-28T08:32:36.949Z,56.3
2022-09-28T08:35:09.442Z,54.7
2022-09-28T08:37:41.924Z,55.5
2022-09-28T08:38:58.152Z,56.3
2022-09-28T08:41:30.629Z,57.2
2022-09-28T08:42:45.887Z,55.7
2022-09-28T08:44:02.124Z,59.7
2022-09-28T08:45:18.363Z,58.1
2022-09-28T08:46:34.599Z,58.9
2022-09-28T08:47:50.851Z,57.8
2022-09-28T08:49:07.090Z,58.8
2022-09-28T08:50:23.320Z,61.7
2022-09-28T08:51:38.584Z,61.7
2022-09-28T08:52:53.837Z,60.7
2022-09-28T08:54:09.099Z,62.3
2022-09-28T08:55:24.369Z,61
2022-09-28T08:56:40.597Z,59.6
2022-09-28T08:57:56.000Z,59.4
2022-09-28T08:59:13.083Z,59.6
2022-09-28T09:00:29.311Z,61.2
2022-09-28T09:01:45.556Z,60.1
2022-09-28T09:03:01.788Z,59.9
2022-09-28T09:04:18.038Z,59.7
2022-09-28T09:05:34.280Z,60.1
2022-09-28T09:06:49.540Z,59.4
2022-09-28T09:08:04.791Z,59.6
2022-09-28T09:09:21.028Z,59.7
2022-09-28T09:10:37.275Z,60.2
2022-09-28T09:11:53.516Z,58.9
2022-09-28T09:13:09.759Z,59.7
2022-09-28T09:14:25.996Z,59.6
2022-09-28T09:15:42.225Z,59.6
2022-09-28T09:16:58.464Z,58.9
2022-09-28T09:18:14.704Z,59.2
2022-09-28T09:19:29.974Z,58.8
2022-09-28T09:20:45.236Z,59.7
2022-09-28T09:22:01.470Z,58.6
2022-09-28T09:23:17.699Z,58
2022-09-28T09:24:33.960Z,56.7
2022-09-28T09:25:50.186Z,56.5
2022-09-28T09:27:06.439Z,56.2
2022-09-28T09:28:22.674Z,54.3
2022-09-28T09:29:38.914Z,55.9
2022-09-28T09:30:55.133Z,54.9
2022-09-28T09:32:11.377Z,54.9
2022-09-28T09:33:27.625Z,55.9
2022-09-28T09:34:43.873Z,54.4
2022-09-28T09:36:00.098Z,53.4
2022-09-28T09:37:15.366Z,52.8
2022-09-28T09:38:31.599Z,54.1
2022-09-28T09:39:47.834Z,52.8
2022-09-28T09:41:04.073Z,53.4
2022-09-28T09:42:20.331Z,54.4
2022-09-28T09:43:36.554Z,53.9
2022-09-28T09:44:52.796Z,53
2022-09-28T09:46:08.050Z,55.9
2022-09-28T09:47:23.306Z,56.2
2022-09-28T09:48:38.564Z,54.6
2022-09-28T09:49:53.841Z,53.1
2022-09-28T09:51:09.082Z,53.4
2022-09-28T09:52:24.359Z,53
2022-09-28T09:53:40.577Z,53
2022-09-28T09:54:56.834Z,50.7
2022-09-28T09:56:13.055Z,52.2
2022-09-28T09:57:29.312Z,50.2
2022-09-28T09:58:45.544Z,49.9
2022-09-28T10:00:01.795Z,49.9
2022-09-28T10:01:18.016Z,48.5
2022-09-28T10:02:34.261Z,50.9
2022-09-28T10:03:50.507Z,52
2022-09-28T10:05:06.741Z,50.4
2022-09-28T10:06:22.974Z,50.1
2022-09-28T10:07:39.225Z,49.6
2022-09-28T10:08:54.474Z,51.5
2022-09-28T10:10:10.715Z,49.3
2022-09-28T10:11:26.958Z,49.9
2022-09-28T10:12:43.196Z,47.5
2022-09-28T10:13:59.438Z,46.8
2022-09-28T10:15:15.685Z,49.3
2022-09-28T10:16:31.920Z,48.6
2022-09-28T10:17:47.172Z,48.6
2022-09-28T10:19:02.437Z,49.4
2022-09-28T10:20:18.674Z,48.8
2022-09-28T10:21:34.898Z,48.3
2022-09-28T10:22:51.149Z,49.1
2022-09-28T10:24:07.387Z,47.3
2022-09-28T10:25:23.634Z,48.6
2022-09-28T10:26:39.882Z,48.1
2022-09-28T10:27:56.112Z,48.6
2022-09-28T10:29:12.350Z,47.2
2022-09-28T10:30:28.579Z,50.2
2022-09-28T10:31:44.833Z,50.5
2022-09-28T10:33:01.059Z,50.9
2022-09-28T10:34:17.306Z,52
2022-09-28T10:35:32.557Z,53.3
2022-09-28T10:36:48.807Z,53.4
2022-09-28T10:38:05.028Z,53.8
2022-09-28T10:39:21.272Z,53.9
2022-09-28T10:40:37.523Z,55.1
2022-09-28T10:41:53.748Z,59.1
2022-09-28T10:43:10.003Z,55.9
2022-09-28T10:44:25.257Z,54.1
2022-09-28T10:45:40.536Z,54.7
2022-09-28T10:46:55.779Z,60.1
2022-09-28T10:48:11.033Z,56.8
2022-09-28T10:49:27.268Z,58.3
2022-09-28T10:50:43.528Z,56.7
2022-09-28T10:51:59.755Z,57.6
2022-09-28T10:53:15.988Z,56.5
2022-09-28T10:54:32.232Z,54.3
2022-09-28T10:55:48.479Z,55.4
2022-09-28T10:57:04.718Z,55.9
2022-09-28T10:58:20.955Z,54.6
2022-09-28T10:59:37.191Z,53.3
2022-09-28T11:00:53.431Z,53.9
2022-09-28T11:02:09.662Z,55.9
2022-09-28T11:03:25.923Z,54.3
2022-09-28T11:04:41.164Z,54.4
2022-09-28T11:05:57.415Z,54.1
2022-09-28T11:07:13.646Z,53.6
2022-09-28T11:08:29.884Z,51.8
2022-09-28T11:09:46.119Z,53.3
2022-09-28T11:11:02.363Z,53.3
2022-09-28T11:12:18.594Z,52.8
2022-09-28T11:13:33.877Z,52.3
2022-09-28T11:14:49.112Z,52.5
2022-09-28T11:16:04.383Z,52.8
2022-09-28T11:17:19.637Z,53.1
2022-09-28T11:18:35.877Z,53
2022-09-28T11:19:52.107Z,51.5
2022-09-28T11:21:08.372Z,50.9
2022-09-28T11:22:24.589Z,49.9
2022-09-28T11:23:40.834Z,49.1
2022-09-28T11:24:57.087Z,50.4
2022-09-28T11:26:13.319Z,50.1
2022-09-28T11:27:29.544Z,50.9
2022-09-28T11:28:45.794Z,51.7
2022-09-28T11:30:02.034Z,49.4
2022-09-28T11:31:18.263Z,50.7
2022-09-28T11:32:34.507Z,51.5
2022-09-28T11:33:49.760Z,48.6
2022-09-28T11:35:06.025Z,50.7
2022-09-28T11:36:22.260Z,49.1
2022-09-28T11:37:38.492Z,49.7
2022-09-28T11:38:54.731Z,49.9
2022-09-28T11:40:10.961Z,48.6
2022-09-28T11:41:27.213Z,51.8
2022-09-28T11:42:42.465Z,50.4
2022-09-28T11:43:57.717Z,51.2
2022-09-28T11:45:12.993Z,51.5
2022-09-28T11:46:28.229Z,51.8
2022-09-28T11:47:43.504Z,58
2022-09-28T11:48:58.748Z,53.6
2022-09-28T11:50:14.993Z,53.4
2022-09-28T11:51:31.225Z,51.8
2022-09-28T11:52:47.463Z,55.1
2022-09-28T11:54:03.730Z,54.1
2022-09-28T11:55:19.952Z,55.1
2022-09-28T11:56:36.208Z,53.3
2022-09-28T11:57:52.423Z,59.2
2022-09-28T11:59:08.679Z,53.3
2022-09-28T12:00:24.906Z,54.6
2022-09-28T12:01:41.154Z,52.5
2022-09-28T12:02:57.391Z,51.7
2022-09-28T12:04:13.625Z,54.7
2022-09-28T12:05:28.883Z,53.3
2022-09-28T12:06:44.139Z,50.1
2022-09-28T12:07:59.412Z,50.1
2022-09-28T12:09:14.653Z,50.7
2022-09-28T12:10:30.903Z,53.4
2022-09-28T12:11:47.132Z,51.2
2022-09-28T12:13:03.368Z,52
2022-09-28T12:14:19.625Z,52
2022-09-28T12:15:35.867Z,53.8
2022-09-28T12:16:52.108Z,52
2022-09-28T12:18:08.355Z,53.8
2022-09-28T12:19:24.584Z,52.2
2022-09-28T12:20:40.808Z,53.6
2022-09-28T12:21:57.063Z,53.4
2022-09-28T12:23:13.290Z,52.8
2022-09-28T12:24:29.529Z,51.7
2022-09-28T12:25:44.783Z,55.1
2022-09-28T12:27:01.032Z,54.1
2022-09-28T12:28:17.286Z,53.3
2022-09-28T12:29:33.525Z,52.2
2022-09-28T12:30:49.758Z,50.4
2022-09-28T12:32:05.991Z,53.3
2022-09-28T12:33:22.228Z,52.5
2022-09-28T12:34:37.491Z,50.2
2022-09-28T12:35:52.764Z,52.2
2022-09-28T12:37:08.018Z,55.1
2022-09-28T12:38:23.269Z,52
2022-09-28T12:39:38.521Z,52.3
2022-09-28T12:40:53.768Z,53.9
2022-09-28T12:42:10.033Z,52
2022-09-28T12:43:26.264Z,52.3
2022-09-28T12:44:42.501Z,51.8
2022-09-28T12:45:58.748Z,53
2022-09-28T12:47:14.979Z,52.8
2022-09-28T12:48:31.227Z,53.4
2022-09-28T12:49:47.446Z,52
2022-09-28T12:51:03.709Z,53.4
2022-09-28T12:52:19.926Z,52.8
2022-09-28T12:53:36.186Z,53
2022-09-28T12:54:52.417Z,51.5
2022-09-28T12:56:08.643Z,54.6
2022-09-28T12:57:23.908Z,51.5
2022-09-28T12:58:40.167Z,54.6
2022-09-28T12:59:56.393Z,55.4
2022-09-28T13:01:12.638Z,53.6
2022-09-28T13:02:28.872Z,52.8
2022-09-28T13:03:45.106Z,53.4
2022-09-28T13:05:01.359Z,51.5
2022-09-28T13:06:16.611Z,52
2022-09-28T13:07:31.854Z,53.8
2022-09-28T13:08:47.117Z,52.3
2022-09-28T13:10:02.381Z,54.9
2022-09-28T13:11:18.621Z,52.2
2022-09-28T13:12:33.870Z,51.5
2022-09-28T13:13:49.142Z,54.1
2022-09-28T13:15:05.381Z,53.6
2022-09-28T13:16:21.613Z,53.6
2022-09-28T13:17:37.853Z,55.4
2022-09-28T13:18:54.106Z,54.3
2022-09-28T13:20:10.334Z,53
2022-09-28T13:21:26.573Z,53.9
2022-09-28T13:22:42.817Z,56.3
2022-09-28T13:23:59.041Z,53.1
2022-09-28T13:25:15.282Z,53.8
2022-09-28T13:26:31.541Z,54.6
2022-09-28T13:27:47.771Z,54.1
2022-09-28T13:29:04.016Z,50.4
2022-09-28T13:30:19.284Z,52.6
2022-09-28T13:31:35.505Z,53.1
2022-09-28T13:32:51.735Z,53
2022-09-28T13:34:07.973Z,51.4
2022-09-28T13:35:24.239Z,49.9
2022-09-28T13:36:40.463Z,50.1
2022-09-28T13:37:56.708Z,51.4
2022-09-28T13:39:11.969Z,51.5
2022-09-28T13:40:27.225Z,51.4
2022-09-28T13:41:43.449Z,52.8
2022-09-28T13:42:58.719Z,52.3
2022-09-28T13:44:13.987Z,51
2022-09-28T13:45:30.226Z,52
2022-09-28T13:46:46.457Z,49.1
2022-09-28T13:48:02.694Z,52.6
2022-09-28T13:49:18.937Z,52.6
2022-09-28T13:50:35.186Z,50.4
2022-09-28T13:51:51.426Z,51.5
2022-09-28T13:53:07.640Z,50.5
2022-09-28T13:54:23.895Z,49.3
2022-09-28T13:55:40.141Z,53
2022-09-28T13:56:56.373Z,55.1
2022-09-28T13:58:12.605Z,52.3
2022-09-28T13:59:28.854Z,49.3
2022-09-28T14:00:44.109Z,48.9
2022-09-28T14:02:00.340Z,48.3
2022-09-28T14:03:16.576Z,48.6
2022-09-28T14:04:32.827Z,50.2
2022-09-28T14:05:49.063Z,53.4
2022-09-28T14:07:05.308Z,48.9
2022-09-28T14:08:21.554Z,50.7
2022-09-28T14:09:36.804Z,50.1
2022-09-28T14:10:52.057Z,48.1
2022-09-28T14:12:08.285Z,47.6
2022-09-28T14:13:24.532Z,48.6
2022-09-28T14:14:40.780Z,53.1
2022-09-28T14:15:57.030Z,49.3
2022-09-28T14:17:13.249Z,50.7
2022-09-28T14:18:29.497Z,50.4
2022-09-28T14:19:45.726Z,49.3
2022-09-28T14:21:01.975Z,48.6
2022-09-28T14:22:18.210Z,49.3
2022-09-28T14:23:34.457Z,48.6
2022-09-28T14:24:50.693Z,48.3
2022-09-28T14:26:06.927Z,48.3
2022-09-28T14:27:22.204Z,48.8
2022-09-28T14:28:38.442Z,50.2
2022-09-28T14:29:53.703Z,48.5
2022-09-28T14:31:09.931Z,50.1
2022-09-28T14:32:25.194Z,48.6
2022-09-28T14:33:40.447Z,50.4
2022-09-28T14:34:56.693Z,51.5
2022-09-28T14:36:12.939Z,50.4
2022-09-28T14:37:29.161Z,52.3
2022-09-28T14:38:45.407Z,50.9
2022-09-28T14:40:01.654Z,53.6
2022-09-28T14:41:17.883Z,51.5
2022-09-28T14:42:34.119Z,50.9
2022-09-28T14:43:50.359Z,51.7
2022-09-28T14:45:06.605Z,50.4
2022-09-28T14:46:22.837Z,48.5
2022-09-28T14:47:39.090Z,50.4
2022-09-28T14:48:55.333Z,49.6
2022-09-28T14:50:10.591Z,52
2022-09-28T14:51:26.827Z,49.7
2022-09-28T14:52:43.063Z,51.7
2022-09-28T14:53:59.298Z,50.4
2022-09-28T14:55:15.544Z,50.1
2022-09-28T14:56:31.761Z,53.3
2022-09-28T14:57:48.025Z,49.6
2022-09-28T14:59:03.273Z,50.7
2022-09-28T15:00:18.548Z,49.3
2022-09-28T15:01:33.794Z,52
2022-09-28T15:02:49.037Z,51.2
2022-09-28T15:04:05.291Z,50.7
2022-09-28T15:05:21.548Z,52.2
2022-09-28T15:06:37.776Z,53.1
2022-09-28T15:07:54.021Z,50.7
2022-09-28T15:09:10.248Z,52
2022-09-28T15:10:26.494Z,51.4
2022-09-28T15:11:42.717Z,51
2022-09-28T15:12:58.965Z,50.7
2022-09-28T15:14:15.215Z,49.9
2022-09-28T15:15:31.438Z,48.5
2022-09-28T15:16:47.703Z,49.7
2022-09-28T15:18:03.936Z,52
2022-09-28T15:19:19.183Z,51.4
2022-09-28T15:20:35.425Z,51.8
2022-09-28T15:21:51.664Z,49.9
2022-09-28T15:23:07.906Z,50.7
2022-09-28T15:24:24.136Z,50.9
2022-09-28T15:25:40.386Z,51.8
2022-09-28T15:26:56.609Z,52
2022-09-28T15:28:11.872Z,50.1
2022-09-28T15:29:28.115Z,51.2
2022-09-28T15:30:43.367Z,52
2022-09-28T15:31:59.611Z,50.9
2022-09-28T15:33:15.851Z,51.2
2022-09-28T15:34:32.087Z,49.6
2022-09-28T15:35:48.330Z,51.5
2022-09-28T15:37:04.577Z,49.7
2022-09-28T15:38:20.814Z,49.7
2022-09-28T15:39:37.045Z,50.2
2022-09-28T15:40:53.298Z,48.6
2022-09-28T15:42:09.527Z,53
2022-09-28T15:43:25.770Z,51.2
2022-09-28T15:44:42.020Z,51.7
2022-09-28T15:45:58.244Z,51
2022-09-28T15:47:14.496Z,50.7
2022-09-28T15:48:29.741Z,51.8
2022-09-28T15:49:45.971Z,49.9
2022-09-28T15:51:02.222Z,52.3
2022-09-28T15:52:18.454Z,49.7
2022-09-28T15:53:34.707Z,51.2
2022-09-28T15:54:49.966Z,53.1
2022-09-28T15:56:05.212Z,51.2
2022-09-28T15:57:20.477Z,51.5
2022-09-28T15:58:35.745Z,51.4
2022-09-28T15:59:51.981Z,53.6
2022-09-28T16:01:08.207Z,50.5
2022-09-28T16:02:24.457Z,50.1
2022-09-28T16:03:40.702Z,52.2
2022-09-28T16:04:56.921Z,50.9
2022-09-28T16:06:13.172Z,49.9
2022-09-28T16:07:29.421Z,51
2022-09-28T16:08:45.650Z,50.1
2022-09-28T16:10:01.899Z,49.9
2022-09-28T16:11:18.139Z,51.2
2022-09-28T16:12:34.372Z,48.6
2022-09-28T16:13:50.609Z,50.1
2022-09-28T16:15:05.877Z,49.9
2022-09-28T16:16:22.105Z,49.3
2022-09-28T16:17:38.351Z,49.1
2022-09-28T16:18:54.597Z,49.7
2022-09-28T16:20:10.816Z,48.3
2022-09-28T16:21:27.074Z,50.4
2022-09-28T16:22:43.311Z,51
2022-09-28T16:23:58.573Z,50.4
2022-09-28T16:25:13.813Z,49.9
2022-09-28T16:26:29.089Z,52
2022-09-28T16:29:00.580Z,52.2
2022-09-28T16:30:16.814Z,50.7
2022-09-28T16:31:32.079Z,50.4
2022-09-28T16:32:47.344Z,49.3
2022-09-28T16:34:03.570Z,49.6
2022-09-28T16:35:19.812Z,53
2022-09-28T16:36:36.064Z,53.6
2022-09-28T16:37:52.295Z,48.9
2022-09-28T16:39:08.530Z,51
2022-09-28T16:40:24.770Z,50.5
2022-09-28T16:41:41.009Z,49.4
2022-09-28T16:42:57.242Z,50.7
2022-09-28T16:44:13.491Z,51
2022-09-28T16:45:29.738Z,52.5
2022-09-28T16:46:45.963Z,50.9
2022-09-28T16:48:02.206Z,51.2
2022-09-28T16:49:17.459Z,50.2
2022-09-28T16:50:33.696Z,51.4
2022-09-28T16:51:49.949Z,50.9
2022-09-28T16:53:06.191Z,53.3
2022-09-28T16:54:22.419Z,49.9
2022-09-28T16:55:38.662Z,50.9
2022-09-28T16:56:54.906Z,51.5
2022-09-28T16:58:10.162Z,51
2022-09-28T16:59:25.410Z,49.7
2022-09-28T17:00:40.684Z,50.4
2022-09-28T17:04:28.421Z,50.7
2022-09-28T17:07:00.895Z,50.1
2022-09-28T17:19:43.287Z,50.7
2022-09-28T17:20:59.531Z,50.2
2022-09-28T17:52:45.758Z,50.4
2022-09-28T17:55:18.379Z,51
2022-09-28T17:57:50.965Z,52
2022-09-28T18:05:28.904Z,51.5
2022-09-28T18:06:45.318Z,52
2022-09-28T18:09:18.147Z,53.3
2022-09-28T18:11:50.969Z,53.9
2022-09-28T18:13:07.382Z,53.4
2022-09-28T18:15:40.204Z,51.5
2022-09-28T18:16:56.628Z,50.1
2022-09-28T18:20:45.865Z,53.1
2022-09-28T18:23:19.124Z,56.2
2022-09-28T18:27:08.975Z,57.6
2022-09-28T18:28:25.600Z,56.3
2022-09-28T18:29:42.217Z,55.5
2022-09-28T18:32:15.453Z,54.9
2022-09-28T18:33:32.089Z,57
2022-09-28T18:34:48.712Z,55.1
2022-09-28T18:36:05.324Z,53.1
2022-09-28T18:40:35.926Z,52
2022-09-28T18:42:06.425Z,51.8
2022-09-28T18:43:36.935Z,51
2022-09-28T18:45:07.458Z,52.2
2022-09-28T18:46:24.536Z,55.1
2022-09-28T18:47:41.598Z,54.4
2022-09-28T18:49:12.122Z,55.5
2022-09-28T18:50:42.625Z,54.4
2022-09-28T18:53:43.642Z,55.5
2022-09-28T18:55:14.152Z,55.2
2022-09-28T18:56:44.675Z,55.2
2022-09-28T18:58:15.182Z,53.1
2022-09-28T18:59:45.689Z,54.1
2022-09-28T19:01:16.203Z,51.5
2022-09-28T19:02:33.290Z,52
2022-09-28T19:03:50.365Z,55.1
2022-09-28T19:05:20.867Z,53.1
2022-09-28T19:08:21.905Z,53.3
2022-09-28T19:09:52.403Z,54.3
2022-09-28T19:11:22.913Z,53.8
2022-09-28T19:12:53.437Z,53.1
2022-09-28T19:14:23.951Z,54.6
2022-09-28T19:15:54.455Z,55.5
2022-09-28T19:17:24.972Z,54.3
2022-09-28T19:18:42.052Z,54.4
2022-09-28T19:19:59.112Z,55.4
2022-09-28T19:21:29.623Z,54.3
2022-09-28T19:23:00.222Z,52.8
2022-09-28T19:24:38.833Z,56.5
2022-09-28T19:26:09.352Z,55.5
2022-09-28T19:27:39.876Z,53.9
2022-09-28T19:29:10.372Z,55.1
2022-09-28T19:30:40.883Z,56.8
2022-09-28T19:32:11.412Z,55.1
2022-09-28T19:33:41.913Z,53.3
2022-09-28T19:34:58.998Z,54.3
2022-09-28T19:36:16.054Z,54.3
2022-09-28T19:37:46.573Z,54.3
2022-09-28T19:39:17.093Z,52.6
2022-09-28T19:40:47.598Z,50.7
2022-09-28T19:42:18.102Z,52.3
2022-09-28T19:43:48.618Z,54.4
2022-09-28T19:45:19.140Z,53
2022-09-28T19:46:49.651Z,53.3
2022-09-28T19:48:20.158Z,54.9
2022-09-28T19:49:50.675Z,54.1
2022-09-28T19:51:07.741Z,53.8
2022-09-28T19:52:24.825Z,52.3
2022-09-28T19:53:55.339Z,52.5
2022-09-28T19:55:25.841Z,52.2
2022-09-28T19:56:56.364Z,55.5
2022-09-28T19:58:26.864Z,56.3
2022-09-28T19:59:57.373Z,55.1
2022-09-28T20:01:27.892Z,55.1
2022-09-28T20:02:58.414Z,53.8
2022-09-28T20:04:28.916Z,54.1
2022-09-28T20:05:59.443Z,54.6
2022-09-28T20:07:16.496Z,54.6
2022-09-28T20:08:33.589Z,54.3
2022-09-28T20:10:04.090Z,56.3
2022-09-28T20:11:34.609Z,57
2022-09-28T20:13:05.107Z,58.8
2022-09-28T20:16:06.152Z,53.9
2022-09-28T20:17:36.667Z,57.8
2022-09-28T20:19:07.166Z,56.7
2022-09-28T20:20:37.678Z,53.4
2022-09-28T20:22:08.202Z,56.5
2022-09-28T20:23:25.272Z,56